createdAt,value
2019-05-15T00:00:45.210Z,87.20
2019-05-15T00:03:12.795Z,87.20
2019-05-15T00:05:39.501Z,87.50
2019-05-15T00:08:09.397Z,87.90
2019-05-15T00:10:38.838Z,88.20
2019-05-15T00:13:05.003Z,88.20
2019-05-15T00:15:33.588Z,88.40
2019-05-15T00:18:00.359Z,88.50
2019-05-15T00:20:29.466Z,88.60
2019-05-15T00:22:55.887Z,88.50
2019-05-15T00:25:22.864Z,88.40
2019-05-15T00:27:49.496Z,88.80
2019-05-15T00:30:18.214Z,89.00
2019-05-15T00:32:44.819Z,89.00
2019-05-15T00:35:11.619Z,89.70
2019-05-15T00:37:38.984Z,89.90
2019-05-15T00:40:08.891Z,89.90
2019-05-15T00:42:35.141Z,90.00
2019-05-15T00:45:03.676Z,90.10
2019-05-15T00:47:30.374Z,90.10
2019-05-15T00:50:08.899Z,90.00
2019-05-15T00:52:36.357Z,90.10
2019-05-15T00:55:05.198Z,90.20
2019-05-15T00:57:31.830Z,90.40
2019-05-15T00:59:58.944Z,90.20
2019-05-15T01:02:25.704Z,90.40
2019-05-15T01:04:52.452Z,90.40
2019-05-15T01:07:19.112Z,90.40
2019-05-15T01:09:45.901Z,90.60
2019-05-15T01:12:12.666Z,90.60
2019-05-15T01:14:39.272Z,90.90
2019-05-15T01:17:06.084Z,91.00
2019-05-15T01:19:32.738Z,91.20
2019-05-15T01:21:59.450Z,90.90
2019-05-15T01:24:28.297Z,91.00
2019-05-15T01:26:54.725Z,90.90
2019-05-15T01:29:21.351Z,91.30
2019-05-15T01:31:48.846Z,91.30
2019-05-15T01:34:18.330Z,91.30
2019-05-15T01:36:44.815Z,91.50
2019-05-15T01:39:11.439Z,91.70
2019-05-15T01:41:38.626Z,91.60
2019-05-15T01:44:05.916Z,91.60
2019-05-15T01:46:39.095Z,91.60
2019-05-15T01:49:04.682Z,91.70
2019-05-15T01:51:31.265Z,91.70
2019-05-15T01:53:58.409Z,91.80
2019-05-15T01:56:25.133Z,91.90
2019-05-15T01:58:51.753Z,92.20
2019-05-15T02:01:19.093Z,92.20
2019-05-15T02:03:49.101Z,92.60
2019-05-15T02:06:15.473Z,92.30
2019-05-15T02:08:42.135Z,92.60
2019-05-15T02:11:09.320Z,92.50
2019-05-15T02:13:38.926Z,92.50
2019-05-15T02:16:08.352Z,92.80
2019-05-15T02:18:34.971Z,92.80
2019-05-15T02:21:01.721Z,92.70
2019-05-15T02:23:28.426Z,92.90
2019-05-15T02:25:55.108Z,93.10
2019-05-15T02:28:21.738Z,93.10
2019-05-15T02:30:50.531Z,93.30
2019-05-15T02:33:18.848Z,93.50
2019-05-15T02:35:45.289Z,93.50
2019-05-15T02:38:15.432Z,93.60
2019-05-15T02:40:42.508Z,93.60
2019-05-15T02:43:10.174Z,93.80
2019-05-15T02:45:41.727Z,93.80
2019-05-15T02:48:08.619Z,94.30
2019-05-15T02:50:34.435Z,94.30
2019-05-15T02:53:01.166Z,94.40
2019-05-15T02:55:29.613Z,94.70
2019-05-15T02:57:59.110Z,95.00
2019-05-15T03:00:37.941Z,94.80
2019-05-15T03:02:55.002Z,94.90
2019-05-15T03:05:21.650Z,95.00
2019-05-15T03:07:49.349Z,95.00
2019-05-15T03:10:19.716Z,95.30
2019-05-15T03:12:45.370Z,95.40
2019-05-15T03:15:12.268Z,95.40
2019-05-15T03:17:40.417Z,95.70
2019-05-15T03:20:10.336Z,95.60
2019-05-15T03:22:40.396Z,95.70
2019-05-15T03:25:10.690Z,95.60
2019-05-15T03:27:39.187Z,95.50
2019-05-15T03:30:13.114Z,95.30
2019-05-15T03:32:50.727Z,95.30
2019-05-15T03:35:13.887Z,95.40
2019-05-15T03:37:39.519Z,95.60
2019-05-15T03:40:05.673Z,95.70
2019-05-15T03:42:32.733Z,95.60
2019-05-15T03:44:59.817Z,95.60
2019-05-15T03:47:29.931Z,95.70
2019-05-15T03:49:55.223Z,95.90
2019-05-15T03:52:22.002Z,96.00
2019-05-15T03:54:49.594Z,95.90
2019-05-15T03:57:22.660Z,96.00
2019-05-15T03:59:48.837Z,96.00
2019-05-15T04:02:14.626Z,96.20
2019-05-15T04:04:41.371Z,96.20
2019-05-15T04:07:09.323Z,96.20
2019-05-15T04:09:38.677Z,96.40
2019-05-15T04:12:04.899Z,96.30
2019-05-15T04:14:31.613Z,96.50
2019-05-15T04:16:59.445Z,96.70
2019-05-15T04:19:29.335Z,96.70
2019-05-15T04:21:54.980Z,96.70
2019-05-15T04:24:22.155Z,96.80
2019-05-15T04:26:50.188Z,96.90
2019-05-15T04:29:19.499Z,96.80
2019-05-15T04:31:56.364Z,97.00
2019-05-15T04:34:13.919Z,96.90
2019-05-15T04:36:44.455Z,96.90
2019-05-15T04:39:09.918Z,96.80
2019-05-15T04:41:39.322Z,96.80
2019-05-15T04:44:05.808Z,96.80
2019-05-15T04:46:32.665Z,96.90
2019-05-15T04:48:59.703Z,96.90
2019-05-15T04:51:30.458Z,96.90
2019-05-15T04:53:58.616Z,97.00
2019-05-15T04:56:29.330Z,97.00
2019-05-15T04:59:00.049Z,97.20
2019-05-15T05:01:28.972Z,97.10
2019-05-15T05:03:58.733Z,97.40
2019-05-15T05:06:25.030Z,97.50
2019-05-15T05:08:51.631Z,97.40
2019-05-15T05:11:19.865Z,97.20
2019-05-15T05:13:48.484Z,97.20
2019-05-15T05:16:18.864Z,97.20
2019-05-15T05:18:44.291Z,97.40
2019-05-15T05:21:11.090Z,97.20
2019-05-15T05:23:37.945Z,97.00
2019-05-15T05:26:08.044Z,96.90
2019-05-15T05:28:33.328Z,96.80
2019-05-15T05:31:00.052Z,96.70
2019-05-15T05:33:28.706Z,96.70
2019-05-15T05:35:55.159Z,96.40
2019-05-15T05:38:21.880Z,96.30
2019-05-15T05:40:49.667Z,96.30
2019-05-15T05:43:18.404Z,96.30
2019-05-15T05:45:45.484Z,96.30
2019-05-15T05:48:12.170Z,96.50
2019-05-15T05:50:44.045Z,96.40
2019-05-15T05:53:10.163Z,96.40
2019-05-15T05:55:38.454Z,96.40
2019-05-15T05:58:08.029Z,96.20
2019-05-15T06:00:39.348Z,96.10
2019-05-15T06:03:08.727Z,96.00
2019-05-15T06:05:38.894Z,96.00
2019-05-15T06:08:08.022Z,96.00
2019-05-15T06:10:35.336Z,95.80
2019-05-15T06:13:02.290Z,95.50
2019-05-15T06:15:29.130Z,95.20
2019-05-15T06:17:55.751Z,95.00
2019-05-15T06:20:22.571Z,94.90
2019-05-15T06:22:49.265Z,94.80
2019-05-15T06:25:19.667Z,94.70
2019-05-15T06:27:44.856Z,94.20
2019-05-15T06:30:19.534Z,93.50
2019-05-15T06:32:40.665Z,93.10
2019-05-15T06:35:08.671Z,92.80
2019-05-15T06:37:35.568Z,92.40
2019-05-15T06:40:03.338Z,92.60
2019-05-15T06:42:29.974Z,92.40
2019-05-15T06:44:58.835Z,91.80
2019-05-15T06:47:24.933Z,91.00
2019-05-15T06:49:51.934Z,90.80
2019-05-15T06:52:18.610Z,90.80
2019-05-15T06:54:45.246Z,90.70
2019-05-15T06:57:11.896Z,90.50
2019-05-15T06:59:38.997Z,89.90
2019-05-15T07:02:07.993Z,89.70
2019-05-15T07:04:34.380Z,89.10
2019-05-15T07:07:01.109Z,88.50
2019-05-15T07:09:28.557Z,86.60
2019-05-15T07:11:55.393Z,86.60
2019-05-15T07:14:22.046Z,86.00
2019-05-15T07:16:48.984Z,85.90
2019-05-15T07:19:15.752Z,86.10
2019-05-15T07:21:42.384Z,84.50
2019-05-15T07:24:09.364Z,84.00
2019-05-15T07:26:38.979Z,83.00
2019-05-15T07:29:04.700Z,82.60
2019-05-15T07:31:31.685Z,82.50
2019-05-15T07:33:59.763Z,79.60
2019-05-15T07:36:28.798Z,78.50
2019-05-15T07:38:57.796Z,77.50
2019-05-15T07:41:23.738Z,76.80
2019-05-15T07:43:50.689Z,76.10
2019-05-15T07:46:18.440Z,76.70
2019-05-15T07:48:49.131Z,76.50
2019-05-15T07:51:17.826Z,75.10
2019-05-15T07:53:43.872Z,74.60
2019-05-15T07:56:12.107Z,71.50
2019-05-15T07:58:39.313Z,71.30
2019-05-15T08:01:09.929Z,69.40
2019-05-15T08:03:47.108Z,70.50
2019-05-15T08:06:20.577Z,69.50
2019-05-15T08:08:48.634Z,67.20
2019-05-15T08:11:20.670Z,66.70
2019-05-15T08:13:44.774Z,67.20
2019-05-15T08:16:11.568Z,66.80
2019-05-15T08:18:39.422Z,66.20
2019-05-15T08:21:08.801Z,66.90
2019-05-15T08:23:34.995Z,63.50
2019-05-15T08:26:01.760Z,63.30
2019-05-15T08:28:28.849Z,61.70
2019-05-15T08:30:58.108Z,59.90
2019-05-15T08:33:28.067Z,60.30
2019-05-15T08:35:55.105Z,60.00
2019-05-15T08:38:21.930Z,59.20
2019-05-15T08:40:49.183Z,58.40
2019-05-15T08:43:18.320Z,57.90
2019-05-15T08:45:45.386Z,55.60
2019-05-15T08:48:12.609Z,56.90
2019-05-15T08:50:39.383Z,57.80
2019-05-15T08:53:08.230Z,53.20
2019-05-15T08:55:34.757Z,52.90
2019-05-15T08:58:08.062Z,52.50
2019-05-15T09:00:33.959Z,52.40
2019-05-15T09:03:00.729Z,52.00
2019-05-15T09:05:28.255Z,52.50
2019-05-15T09:07:55.185Z,51.50
2019-05-15T09:10:21.833Z,52.50
2019-05-15T09:12:50.320Z,51.50
2019-05-15T09:15:18.514Z,52.10
2019-05-15T09:17:45.789Z,52.40
2019-05-15T09:20:13.881Z,51.40
2019-05-15T09:22:40.611Z,52.40
2019-05-15T09:25:09.478Z,53.20
2019-05-15T09:27:38.211Z,53.40
2019-05-15T09:30:08.763Z,52.40
2019-05-15T09:32:35.991Z,52.20
2019-05-15T09:35:05.105Z,53.00
2019-05-15T09:37:33.803Z,52.50
2019-05-15T09:40:01.156Z,53.20
2019-05-15T09:42:28.661Z,53.80
2019-05-15T09:44:58.234Z,54.90
2019-05-15T09:47:25.505Z,55.00
2019-05-15T09:49:52.134Z,54.50
2019-05-15T09:52:22.196Z,53.50
2019-05-15T09:54:49.077Z,53.70
2019-05-15T09:57:16.448Z,54.00
2019-05-15T09:59:44.416Z,53.60
2019-05-15T10:02:11.295Z,52.80
2019-05-15T10:04:39.181Z,52.50
2019-05-15T10:07:08.082Z,52.20
2019-05-15T10:09:34.515Z,52.50
2019-05-15T10:12:03.329Z,52.00
2019-05-15T10:14:30.035Z,52.10
2019-05-15T10:16:58.404Z,51.60
2019-05-15T10:19:25.258Z,51.50
2019-05-15T10:21:54.940Z,51.20
2019-05-15T10:24:22.633Z,51.60
2019-05-15T10:26:49.360Z,52.40
2019-05-15T10:29:16.161Z,53.90
2019-05-15T10:31:43.406Z,53.70
2019-05-15T10:34:10.168Z,54.00
2019-05-15T10:36:38.653Z,53.70
2019-05-15T10:39:08.155Z,53.90
2019-05-15T10:41:34.581Z,53.70
2019-05-15T10:44:02.634Z,53.60
2019-05-15T10:46:29.305Z,51.20
2019-05-15T10:48:58.438Z,51.20
2019-05-15T10:51:24.631Z,51.60
2019-05-15T10:53:52.376Z,51.30
2019-05-15T10:56:19.073Z,51.80
2019-05-15T10:58:50.105Z,52.30
2019-05-15T11:01:14.508Z,51.60
2019-05-15T11:03:41.230Z,52.20
2019-05-15T11:06:09.085Z,52.30
2019-05-15T11:08:35.993Z,52.60
2019-05-15T11:11:02.889Z,52.60
2019-05-15T11:13:29.837Z,52.30
2019-05-15T11:15:56.529Z,51.90
2019-05-15T11:18:23.226Z,52.20
2019-05-15T11:20:50.016Z,52.80
2019-05-15T11:23:19.522Z,53.20
2019-05-15T11:25:45.805Z,51.90
2019-05-15T11:28:13.439Z,51.80
2019-05-15T11:30:40.397Z,51.20
2019-05-15T11:33:09.648Z,51.40
2019-05-15T11:35:35.958Z,51.70
2019-05-15T11:38:02.820Z,51.20
2019-05-15T11:40:43.099Z,51.40
2019-05-15T11:43:09.798Z,51.40
2019-05-15T11:45:38.959Z,52.00
2019-05-15T11:48:06.092Z,50.80
2019-05-15T11:50:32.884Z,51.30
2019-05-15T11:52:59.526Z,51.10
2019-05-15T11:55:26.154Z,49.20
2019-05-15T11:57:55.601Z,49.60
2019-05-15T12:00:26.761Z,51.10
2019-05-15T12:02:50.351Z,51.20
2019-05-15T12:05:18.252Z,52.50
2019-05-15T12:07:47.910Z,52.30
2019-05-15T12:10:14.902Z,52.10
2019-05-15T12:12:41.540Z,51.40
2019-05-15T12:15:08.979Z,51.60
2019-05-15T12:17:35.724Z,51.60
2019-05-15T12:20:06.553Z,51.80
2019-05-15T12:22:33.043Z,51.10
2019-05-15T12:25:00.923Z,50.60
2019-05-15T12:27:28.317Z,50.30
2019-05-15T12:29:55.339Z,49.60
2019-05-15T12:32:31.166Z,50.10
2019-05-15T12:34:50.683Z,50.30
2019-05-15T12:37:19.773Z,49.40
2019-05-15T12:39:46.203Z,49.70
2019-05-15T13:02:03.600Z,50.60
2019-05-15T13:04:30.180Z,50.20
2019-05-15T13:07:12.170Z,50.20
2019-05-15T13:09:38.671Z,50.20
2019-05-15T13:12:05.304Z,49.40
2019-05-15T13:14:32.152Z,50.10
2019-05-15T13:16:59.309Z,50.40
2019-05-15T13:19:28.515Z,49.80
2019-05-15T13:21:54.721Z,49.40
2019-05-15T13:24:21.377Z,50.00
2019-05-15T13:26:48.299Z,49.00
2019-05-15T13:29:15.044Z,49.40
2019-05-15T13:31:41.823Z,49.50
2019-05-15T13:34:08.583Z,49.00
2019-05-15T13:36:35.451Z,48.10
2019-05-15T13:39:05.265Z,47.90
2019-05-15T13:41:32.288Z,47.30
2019-05-15T13:44:00.193Z,46.70
2019-05-15T13:46:29.087Z,46.50
2019-05-15T13:48:55.700Z,46.90
2019-05-15T13:51:22.345Z,44.70
2019-05-15T13:53:49.286Z,44.80
2019-05-15T13:56:18.218Z,45.10
2019-05-15T13:58:45.062Z,45.10
2019-05-15T14:01:11.996Z,44.80
2019-05-15T14:03:39.229Z,45.00
2019-05-15T14:06:09.099Z,45.20
2019-05-15T14:08:35.262Z,44.90
2019-05-15T14:11:01.911Z,44.10
2019-05-15T14:13:29.056Z,44.00
2019-05-15T14:15:58.351Z,42.70
2019-05-15T14:18:25.170Z,43.50
2019-05-15T14:20:52.274Z,43.70
2019-05-15T14:23:19.294Z,43.40
2019-05-15T14:25:48.264Z,44.10
2019-05-15T14:28:15.088Z,44.30
2019-05-15T14:30:41.743Z,43.90
2019-05-15T14:33:08.740Z,46.00
2019-05-15T14:35:37.757Z,44.40
2019-05-15T14:38:06.782Z,46.90
2019-05-15T14:40:34.092Z,44.10
2019-05-15T14:43:00.623Z,45.00
2019-05-15T14:45:28.133Z,44.60
2019-05-15T14:47:54.686Z,45.10
2019-05-15T14:50:21.342Z,43.90
2019-05-15T14:52:48.571Z,43.60
2019-05-15T14:55:15.382Z,43.50
2019-05-15T14:57:42.017Z,44.70
2019-05-15T15:00:09.182Z,44.20
2019-05-15T15:02:38.646Z,44.20
2019-05-15T15:05:04.958Z,43.40
2019-05-15T15:07:31.613Z,43.40
2019-05-15T15:09:58.468Z,44.20
2019-05-15T15:12:25.166Z,43.10
2019-05-15T15:14:51.818Z,43.60
2019-05-15T15:17:19.640Z,44.20
2019-05-15T15:19:51.711Z,43.70
2019-05-15T15:22:15.518Z,44.60
2019-05-15T15:24:42.224Z,43.80
2019-05-15T15:27:08.935Z,43.30
2019-05-15T15:29:35.643Z,44.00
2019-05-15T15:32:02.522Z,43.50
2019-05-15T15:34:29.328Z,43.90
2019-05-15T15:36:57.946Z,43.30
2019-05-15T15:39:24.677Z,42.70
2019-05-15T15:41:51.296Z,44.80
2019-05-15T15:44:18.061Z,43.10
2019-05-15T15:46:45.045Z,42.70
2019-05-15T15:49:11.710Z,43.20
2019-05-15T15:51:38.349Z,44.60
2019-05-15T15:54:05.166Z,44.80
2019-05-15T15:56:31.910Z,44.80
2019-05-15T15:58:59.450Z,45.00
2019-05-15T16:01:28.540Z,45.60
2019-05-15T16:03:54.991Z,45.70
2019-05-15T16:06:21.972Z,46.70
2019-05-15T16:08:55.114Z,45.60
2019-05-15T16:11:18.766Z,46.20
2019-05-15T16:13:49.497Z,46.00
2019-05-15T16:16:15.150Z,46.30
2019-05-15T16:18:41.797Z,45.60
2019-05-15T16:21:08.521Z,45.50
2019-05-15T16:23:35.759Z,45.60
2019-05-15T16:26:02.576Z,46.40
2019-05-15T16:28:29.367Z,46.40
2019-05-15T16:30:58.421Z,46.10
2019-05-15T16:33:24.582Z,45.90
2019-05-15T16:35:51.386Z,46.20
2019-05-15T16:38:19.219Z,46.50
2019-05-15T16:40:48.726Z,46.30
2019-05-15T16:43:17.824Z,46.60
2019-05-15T16:45:44.559Z,47.00
2019-05-15T16:48:11.222Z,46.90
2019-05-15T16:50:38.265Z,46.80
2019-05-15T16:53:05.696Z,47.70
2019-05-15T16:55:32.320Z,47.00
2019-05-15T16:57:59.418Z,46.60
2019-05-15T17:00:29.176Z,46.80
2019-05-15T17:03:09.259Z,46.50
2019-05-15T17:05:25.802Z,46.90
2019-05-15T17:07:52.669Z,46.90
2019-05-15T17:10:19.295Z,46.30
2019-05-15T17:12:46.002Z,46.70
2019-05-15T17:15:13.365Z,46.70
2019-05-15T17:17:40.307Z,47.50
2019-05-15T17:20:09.796Z,46.70
2019-05-15T17:22:38.104Z,46.40
2019-05-15T17:25:05.390Z,46.90
2019-05-15T17:27:32.049Z,46.60
2019-05-15T17:29:58.741Z,47.20
2019-05-15T17:32:25.555Z,47.30
2019-05-15T17:34:52.392Z,47.20
2019-05-15T17:37:19.212Z,48.20
2019-05-15T17:39:48.389Z,48.50
2019-05-15T17:42:14.727Z,47.80
2019-05-15T17:44:41.526Z,47.80
2019-05-15T17:47:09.711Z,47.70
2019-05-15T17:49:38.560Z,47.60
2019-05-15T17:52:05.600Z,47.90
2019-05-15T17:54:32.736Z,48.60
2019-05-15T17:56:59.462Z,48.30
2019-05-15T17:59:28.478Z,48.30
2019-05-15T18:01:54.656Z,48.40
2019-05-15T18:04:21.353Z,47.60
2019-05-15T18:06:48.505Z,48.60
2019-05-15T18:09:15.094Z,49.40
2019-05-15T18:11:44.471Z,49.40
2019-05-15T18:14:10.345Z,49.90
2019-05-15T18:16:38.155Z,50.30
2019-05-15T18:19:08.448Z,50.20
2019-05-15T18:21:38.136Z,50.60
2019-05-15T18:24:05.587Z,51.70
2019-05-15T18:26:32.427Z,51.30
2019-05-15T18:29:02.215Z,50.90
2019-05-15T18:31:29.287Z,50.90
2019-05-15T18:33:58.969Z,51.00
2019-05-15T18:36:25.702Z,51.10
2019-05-15T18:38:52.358Z,50.90
2019-05-15T18:41:19.027Z,51.20
2019-05-15T18:43:45.775Z,51.20
2019-05-15T18:46:12.550Z,51.80
2019-05-15T18:48:39.289Z,52.30
2019-05-15T18:51:07.938Z,52.20
2019-05-15T18:53:34.593Z,52.20
2019-05-15T18:56:01.638Z,52.70
2019-05-15T18:58:28.664Z,52.70
2019-05-15T19:00:57.800Z,52.80
2019-05-15T19:03:24.018Z,52.90
2019-05-15T19:05:50.876Z,53.10
2019-05-15T19:08:18.754Z,53.00
2019-05-15T19:10:47.760Z,53.40
2019-05-15T19:13:14.714Z,54.00
2019-05-15T19:15:41.502Z,53.80
2019-05-15T19:18:08.233Z,54.10
2019-05-15T19:20:35.250Z,54.00
2019-05-15T19:23:02.000Z,54.30
2019-05-15T19:25:28.821Z,54.30
2019-05-15T19:27:55.908Z,54.30
2019-05-15T19:30:22.871Z,54.20
2019-05-15T19:32:49.638Z,54.40
2019-05-15T19:35:18.505Z,54.60
2019-05-15T19:37:45.197Z,54.40
2019-05-15T19:40:12.058Z,55.10
2019-05-15T19:42:38.779Z,54.90
2019-05-15T19:45:08.544Z,54.90
2019-05-15T19:47:38.410Z,55.50
2019-05-15T19:50:05.270Z,55.80
2019-05-15T19:52:33.317Z,55.50
2019-05-15T19:55:00.625Z,55.30
2019-05-15T19:57:28.052Z,55.60
2019-05-15T19:59:58.045Z,55.70
2019-05-15T20:02:25.639Z,55.70
2019-05-15T20:04:52.659Z,55.80
2019-05-15T20:07:20.720Z,56.00
2019-05-15T20:09:49.290Z,55.70
2019-05-15T20:12:18.394Z,56.00
2019-05-15T20:14:45.149Z,56.10
2019-05-15T20:17:13.113Z,56.40
2019-05-15T20:19:44.412Z,57.10
2019-05-15T20:22:13.049Z,57.00
2019-05-15T20:24:39.894Z,57.00
2019-05-15T20:27:08.544Z,57.00
2019-05-15T20:29:38.690Z,57.10
2019-05-15T20:32:06.200Z,57.30
2019-05-15T20:34:33.974Z,57.40
2019-05-15T20:37:00.796Z,57.60
2019-05-15T20:39:28.955Z,57.70
2019-05-15T20:41:58.120Z,58.00
2019-05-15T20:44:24.830Z,58.00
2019-05-15T20:46:51.453Z,58.10
2019-05-15T20:49:18.075Z,58.00
2019-05-15T20:51:45.114Z,58.10
2019-05-15T20:54:11.989Z,58.50
2019-05-15T20:56:41.220Z,59.10
2019-05-15T20:59:08.873Z,59.40
2019-05-15T21:01:35.738Z,59.50
2019-05-15T21:04:16.899Z,59.60
2019-05-15T21:06:32.044Z,59.80
2019-05-15T21:08:59.014Z,60.10
2019-05-15T21:11:32.942Z,60.40
2019-05-15T21:13:59.752Z,60.20
2019-05-15T21:16:27.922Z,60.60
2019-05-15T21:18:54.923Z,60.80
2019-05-15T21:21:21.552Z,60.90
2019-05-15T21:23:49.186Z,61.10
2019-05-15T21:26:18.595Z,61.10
2019-05-15T21:28:44.482Z,61.90
2019-05-15T21:31:11.197Z,61.90
2019-05-15T21:33:51.325Z,62.10
2019-05-15T21:36:19.470Z,62.20
2019-05-15T21:38:49.340Z,62.10
2019-05-15T21:41:18.619Z,63.20
2019-05-15T21:43:44.609Z,63.10
2019-05-15T21:46:11.424Z,63.20
2019-05-15T21:48:38.364Z,63.50
2019-05-15T21:51:05.215Z,63.40
2019-05-15T21:53:31.850Z,63.50
2019-05-15T21:55:59.070Z,63.70
2019-05-15T21:58:25.746Z,65.10
2019-05-15T22:00:54.589Z,64.30
2019-05-15T22:03:23.771Z,64.20
2019-05-15T22:05:50.496Z,64.00
2019-05-15T22:08:18.381Z,64.40
2019-05-15T22:10:45.298Z,64.50
2019-05-15T22:13:12.047Z,64.70
2019-05-15T22:15:39.432Z,64.80
2019-05-15T22:18:08.658Z,64.70
2019-05-15T22:20:41.530Z,64.60
2019-05-15T22:23:15.216Z,64.60
2019-05-15T22:25:42.180Z,65.00
2019-05-15T22:28:09.136Z,65.70
2019-05-15T22:30:38.789Z,66.90
2019-05-15T22:33:05.602Z,66.20
2019-05-15T22:35:32.310Z,66.50
2019-05-15T22:37:59.067Z,66.40
2019-05-15T22:40:25.772Z,66.50
2019-05-15T22:42:52.604Z,66.60
2019-05-15T22:45:20.242Z,66.80
2019-05-15T22:47:48.185Z,66.80
2019-05-15T22:50:15.507Z,67.10
2019-05-15T22:52:42.176Z,66.90
2019-05-15T22:55:11.286Z,67.10
2019-05-15T22:57:38.865Z,67.40
2019-05-15T23:00:08.645Z,67.30
2019-05-15T23:02:36.160Z,67.40
2019-05-15T23:05:05.436Z,67.70
2019-05-15T23:07:32.070Z,67.40
2019-05-15T23:09:58.806Z,67.80
2019-05-15T23:12:25.847Z,67.90
2019-05-15T23:14:52.554Z,68.20
2019-05-15T23:17:19.200Z,68.20
2019-05-15T23:19:45.737Z,68.70
2019-05-15T23:22:12.881Z,68.60
2019-05-15T23:24:39.616Z,68.80
2019-05-15T23:27:08.751Z,68.70
2019-05-15T23:29:34.950Z,68.80
2019-05-15T23:32:01.580Z,69.10
2019-05-15T23:34:29.770Z,70.20
2019-05-15T23:36:57.668Z,69.30
2019-05-15T23:39:24.505Z,69.50
2019-05-15T23:41:51.259Z,69.40
2019-05-15T23:44:18.351Z,69.30
2019-05-15T23:46:45.162Z,70.00
2019-05-15T23:49:11.780Z,70.00
2019-05-15T23:51:38.652Z,70.60
2019-05-15T23:54:05.562Z,71.10
2019-05-15T23:56:32.203Z,70.90
2019-05-15T23:58:58.858Z,70.50
